»·PEaware :: N1718G KFLG-KLAS

N1718G :: KFLG-KLAS

FLIGHT INFORMATION

Flight Status: Arrived
Operator: Privately registered:
United States
More flights under this callsign
Pilot: Spencer M. (27733)
Aircraft: CESSNA 206 STATIONAIR
(C206)
More flights by this aircraft type
Origin: KFLG Flagstaff Pulliam
United States
Destination: KLAS McCarran Intl
United States
More flights between these airports :: More routes between these airports
Route: PGS
File this flight plan on PilotEdge
Remarks:
Altitude:
(Current/Filed)
10,500ft
Speed:
(Current/Filed)
160kts
Departed: 16-Mar-20 08:16 PM
Arrived: 16-Mar-20 09:32 PM
Distance/Time
Traveled:
180nm/1:16
Distance/Time
To Go:
Arrived

Flight Plot

Page will automatically refresh every two minutes.

Flight plan parsing failed; only flown route is shown


Map Options




Map Legend


Flown Route
Filed Route
Departure Airport
Arrival Airport
Navaid (VOR, NDB)
Fix

Horizontal Profiles

Position Reports

Time Latitude Longitude Heading Altitude Ground
Speed
16-Mar-20 19:52 35.138480 -111.678509 221 7015ft 0kts
16-Mar-20 19:53 35.138480 -111.678509 221 7015ft 0kts
16-Mar-20 19:54 35.138267 -111.678411 133 7015ft 0kts
16-Mar-20 19:55 35.137989 -111.678025 132 7015ft 5kts
16-Mar-20 19:56 35.138055 -111.676646 41 7015ft 4kts
16-Mar-20 19:57 35.138787 -111.676230 112 7015ft 0kts
16-Mar-20 19:58 35.138787 -111.676230 112 7015ft 0kts
16-Mar-20 19:59 35.138787 -111.676230 112 7015ft 0kts
16-Mar-20 20:00 35.138787 -111.676230 112 7015ft 0kts
16-Mar-20 20:01 35.138787 -111.676230 112 7015ft 0kts
16-Mar-20 20:02 35.138787 -111.676230 112 7015ft 0kts
16-Mar-20 20:03 35.138457 -111.675408 129 7015ft 7kts
16-Mar-20 20:04 35.137846 -111.673625 40 7015ft 9kts
16-Mar-20 20:05 35.140149 -111.671184 41 7015ft 11kts
16-Mar-20 20:07 35.142744 -111.668461 37 7015ft 10kts
16-Mar-20 20:08 35.144121 -111.667503 91 7015ft 0kts
16-Mar-20 20:09 35.144121 -111.667503 91 7015ft 0kts
16-Mar-20 20:10 35.144121 -111.667503 91 7015ft 0kts
16-Mar-20 20:11 35.144754 -111.666277 40 7015ft 9kts
16-Mar-20 20:12 35.147183 -111.663727 40 7015ft 13kts
16-Mar-20 20:13 35.149776 -111.660947 44 7015ft 5kts
16-Mar-20 20:14 35.149857 -111.660505 115 7015ft 0kts
16-Mar-20 20:15 35.149854 -111.660497 116 7015ft 0kts
16-Mar-20 20:16 35.145011 -111.664290 220 7031ft 89kts
16-Mar-20 20:17 35.120541 -111.690061 240 7936ft 127kts
16-Mar-20 20:18 35.126915 -111.732770 290 8978ft 138kts
16-Mar-20 20:19 35.138849 -111.775364 291 9848ft 122kts
16-Mar-20 20:20 35.150650 -111.812594 292 10502ft 127kts
16-Mar-20 20:21 35.165397 -111.858572 292 10500ft 155kts
16-Mar-20 20:22 35.181626 -111.908793 292 10498ft 161kts
16-Mar-20 20:23 35.198203 -111.959983 292 10498ft 162kts
16-Mar-20 20:24 35.214805 -112.011199 292 10498ft 162kts
16-Mar-20 20:25 35.231442 -112.062481 292 10498ft 162kts
16-Mar-20 20:26 35.248103 -112.113796 292 10498ft 162kts
16-Mar-20 20:26 35.261946 -112.156398 292 10498ft 162kts
16-Mar-20 20:28 35.281439 -112.216343 292 10498ft 162kts
16-Mar-20 20:29 35.298098 -112.267528 293 10498ft 162kts
16-Mar-20 20:29 35.312049 -112.310364 293 10498ft 162kts
16-Mar-20 20:30 35.328306 -112.361857 292 10498ft 162kts
16-Mar-20 20:32 35.346969 -112.422094 292 10498ft 162kts
16-Mar-20 20:32 35.360344 -112.465228 292 10498ft 162kts
16-Mar-20 20:33 35.376369 -112.516867 292 10498ft 162kts
16-Mar-20 20:34 35.392407 -112.568503 292 10498ft 162kts
16-Mar-20 20:35 35.408488 -112.620238 292 10498ft 162kts
16-Mar-20 20:36 35.424630 -112.672125 291 10498ft 162kts
16-Mar-20 20:38 35.443425 -112.732480 291 10498ft 162kts
16-Mar-20 20:38 35.456882 -112.775660 291 10498ft 162kts
16-Mar-20 20:39 35.473010 -112.827371 291 10498ft 162kts
16-Mar-20 20:40 35.487672 -112.879723 287 10498ft 162kts
16-Mar-20 20:41 35.500830 -112.932630 288 10498ft 162kts
16-Mar-20 20:42 35.514033 -112.985638 288 10498ft 162kts
16-Mar-20 20:43 35.527232 -113.038574 288 10498ft 162kts
16-Mar-20 20:44 35.539527 -113.088178 287 10495ft 136kts
16-Mar-20 20:45 35.549787 -113.130212 287 10498ft 124kts
16-Mar-20 20:46 35.559668 -113.170746 287 10499ft 124kts
16-Mar-20 20:47 35.569765 -113.212077 287 10500ft 130kts
16-Mar-20 20:48 35.580732 -113.256626 288 10502ft 147kts
16-Mar-20 20:49 35.593234 -113.306770 288 10497ft 153kts
16-Mar-20 20:50 35.605494 -113.356053 288 10498ft 148kts
16-Mar-20 20:51 35.614852 -113.404960 280 10498ft 146kts
16-Mar-20 20:52 35.621463 -113.455956 280 10498ft 155kts
16-Mar-20 20:53 35.628348 -113.508635 280 10498ft 156kts
16-Mar-20 20:54 35.637859 -113.560791 291 10499ft 157kts
16-Mar-20 20:55 35.652908 -113.611243 291 10498ft 157kts
16-Mar-20 20:56 35.668008 -113.661754 291 10498ft 157kts
16-Mar-20 20:57 35.683104 -113.712212 291 10498ft 158kts
16-Mar-20 20:58 35.698684 -113.764085 291 10498ft 163kts
16-Mar-20 20:59 35.714517 -113.816680 291 10498ft 164kts
16-Mar-20 21:00 35.730410 -113.869412 291 10497ft 164kts
16-Mar-20 21:01 35.745364 -113.919270 291 10497ft 148kts
16-Mar-20 21:02 35.759272 -113.965892 291 10498ft 143kts
16-Mar-20 21:03 35.772827 -114.011376 291 10497ft 138kts
16-Mar-20 21:04 35.786133 -114.056065 291 10501ft 147kts
16-Mar-20 21:05 35.800876 -114.105118 291 10498ft 156kts
16-Mar-20 21:06 35.816098 -114.155608 291 10498ft 157kts
16-Mar-20 21:07 35.833903 -114.204969 299 10498ft 156kts
16-Mar-20 21:08 35.851984 -114.246544 299 10496ft 125kts
16-Mar-20 21:09 35.867585 -114.282653 299 10503ft 122kts
16-Mar-20 21:10 35.885326 -114.323473 298 10499ft 142kts
16-Mar-20 21:11 35.902189 -114.368628 295 10499ft 147kts
16-Mar-20 21:12 35.919149 -114.414814 295 10498ft 148kts
16-Mar-20 21:13 35.935594 -114.461431 294 10498ft 148kts
16-Mar-20 21:14 35.952287 -114.508021 296 10498ft 148kts
16-Mar-20 21:16 35.974448 -114.565189 297 9779ft 171kts
16-Mar-20 21:16 35.991494 -114.608853 297 8928ft 165kts
16-Mar-20 21:17 36.010322 -114.659185 296 7906ft 158kts
16-Mar-20 21:18 36.029285 -114.707835 296 6891ft 156kts
16-Mar-20 21:19 36.048136 -114.756079 296 5874ft 155kts
16-Mar-20 21:20 36.066832 -114.803811 296 4858ft 153kts
16-Mar-20 21:21 36.084125 -114.848186 296 4598ft 137kts
16-Mar-20 21:22 36.100725 -114.890808 296 4598ft 137kts
16-Mar-20 21:23 36.117959 -114.934906 296 4598ft 146kts
16-Mar-20 21:24 36.135878 -114.980566 297 4596ft 145kts
16-Mar-20 21:25 36.147912 -115.025826 280 4318ft 135kts
16-Mar-20 21:27 36.155859 -115.073587 284 3359ft 112kts
16-Mar-20 21:27 36.152967 -115.103282 254 2689ft 106kts
16-Mar-20 21:28 36.137061 -115.134104 214 2716ft 103kts
16-Mar-20 21:29 36.115095 -115.147368 208 2531ft 83kts
16-Mar-20 21:30 36.096652 -115.158092 204 2093ft 54kts
16-Mar-20 21:31 36.094081 -115.160547 285 2106ft 2kts
16-Mar-20 21:32 36.094114 -115.160729 277 2107ft 0kts
16-Mar-20 21:33 36.094065 -115.161981 205 2110ft 1kts
16-Mar-20 21:34 36.093378 -115.162438 208 2113ft 4kts
16-Mar-20 21:35 36.091900 -115.163321 211 2120ft 8kts
16-Mar-20 21:36 36.089370 -115.164742 204 2133ft 12kts
16-Mar-20 21:37 36.086280 -115.166497 205 2146ft 12kts
16-Mar-20 21:38 36.082597 -115.168592 205 2161ft 15kts
16-Mar-20 21:39 36.081691 -115.170396 356 2167ft 0kts

Navigation Log

Ident Type
Flight plan parsing failed, navigation log unavailable